Xiangtan, China
Current Conditions -  °F | °C
As of 9:00 AM on Sunday 23 Nov 2014 (Local Time) from ZGHA Reporting Station
Haze Haze  
Wind Chill: 59°   Ceiling: 600
Heat Index: 59°   Visibility: 0.62mi
Dew Point: 54°   Wind: 7mph
Humidity: 82%   Direction: 320°NW
Pressure: 30.09"   Gusts: NA
Location:  27.85°N, 112.9°E
Report Text: ZGHA 230100Z 32003MPS 290V350 1000 R36/0900V1000N BRBKN00615/12 Q1019 BECMG TL0150 1700 BR NSC
Loading
Personal Weather Stations






























Interactive Weather Map New forecast layout! Learn more

10-Day Weather Forecast

Advertisements
Track Severe Weather on mobile